Time;durP1;ratioP1;P1;durP2;ratioP2;P2;SDS_P1;SDS_P2;PMS_P1;PMS_P2;Temp;Humidity;BMP_temperature;BMP_pressure;BME280_temperature;BME280_humidity;BME280_pressure;Samples;Min_cycle;Max_cycle;Signal;HPM_P1;HPM_P2
2022/01/23 00:00:02;;;;;;;26.80;18.23;;;3.90;99.90;;;;;;5029856;28;20178;-67
2022/01/23 00:02:29;;;;;;;25.40;18.60;;;3.90;99.90;;;;;;5031461;28;20182;-69
2022/01/23 00:04:55;;;;;;;23.40;16.60;;;3.90;99.90;;;;;;5030938;28;20192;-68
2022/01/23 00:07:21;;;;;;;23.40;16.65;;;3.90;99.90;;;;;;5031102;28;20548;-67
2022/01/23 00:09:47;;;;;;;22.17;16.45;;;3.90;99.90;;;;;;5029821;28;20190;-67
2022/01/23 00:12:17;;;;;;;21.57;15.33;;;3.90;99.90;;;;;;5033770;28;20189;-68
2022/01/23 00:17:33;;;;;;;20.05;14.13;;;3.80;99.90;;;;;;5040405;28;20270;-67
2022/01/23 00:20:02;;;;;;;19.58;14.82;;;3.80;99.90;;;;;;5026529;28;20198;-67
2022/01/23 00:22:52;;;;;;;20.25;13.38;;;3.80;99.90;;;;;;5029814;28;20183;-64
2022/01/23 00:30:48;;;;;;;18.70;13.88;;;4.00;99.90;;;;;;5031376;28;21056;-68
2022/01/23 00:33:15;;;;;;;20.60;13.82;;;3.90;99.90;;;;;;5027978;28;20681;-67
2022/01/23 00:35:45;;;;;;;18.63;13.07;;;4.00;99.90;;;;;;5046657;28;20543;-68
2022/01/23 00:38:13;;;;;;;18.42;11.90;;;4.00;99.90;;;;;;5029626;28;20288;-58
2022/01/23 00:40:40;;;;;;;18.70;11.48;;;4.00;99.90;;;;;;5035671;28;20193;-67
2022/01/23 00:43:14;;;;;;;17.80;11.63;;;3.90;99.90;;;;;;5041355;28;20176;-67
2022/01/23 00:45:47;;;;;;;16.77;11.60;;;3.90;99.90;;;;;;5029407;28;20528;-68
2022/01/23 00:48:13;;;;;;;18.80;12.38;;;3.90;99.90;;;;;;5028502;28;20194;-68
2022/01/23 00:50:42;;;;;;;19.17;12.52;;;3.90;99.90;;;;;;5030769;28;20650;-67
2022/01/23 00:53:10;;;;;;;18.75;12.32;;;3.90;99.90;;;;;;5034125;28;20215;-73
2022/01/23 00:55:38;;;;;;;20.15;13.15;;;4.00;99.90;;;;;;5040481;28;20214;-68
2022/01/23 00:58:03;;;;;;;20.40;12.80;;;3.90;99.90;;;;;;5023152;28;20191;-68
2022/01/23 01:00:29;;;;;;;18.13;12.63;;;4.00;99.90;;;;;;5031768;28;20671;-68
2022/01/23 01:02:55;;;;;;;16.20;11.60;;;4.00;99.90;;;;;;5030504;28;20187;-68
2022/01/23 01:05:21;;;;;;;17.37;12.50;;;3.90;99.90;;;;;;5039657;28;20441;-66
2022/01/23 01:07:47;;;;;;;19.13;11.52;;;4.00;99.90;;;;;;5035086;28;20171;-68
2022/01/23 01:10:21;;;;;;;16.60;11.90;;;4.00;99.90;;;;;;5036124;28;20224;-67
2022/01/23 01:12:49;;;;;;;14.07;10.90;;;4.10;99.90;;;;;;5018062;28;20334;-68
2022/01/23 01:31:44;;;;;;;16.88;10.98;;;4.20;99.90;;;;;;5040731;28;20662;-68
2022/01/23 01:34:24;;;;;;;16.67;11.93;;;4.20;99.90;;;;;;5037443;28;20198;-67
2022/01/23 01:36:52;;;;;;;17.48;11.05;;;4.20;99.90;;;;;;5025124;28;20253;-68
2022/01/23 01:39:24;;;;;;;17.60;11.80;;;4.20;99.90;;;;;;5029175;28;20540;-68
2022/01/23 01:41:51;;;;;;;21.35;13.57;;;4.20;99.90;;;;;;5026972;28;20171;-68
2022/01/23 01:44:17;;;;;;;18.75;13.60;;;4.20;99.90;;;;;;5029171;28;20179;-67
2022/01/23 01:46:43;;;;;;;18.07;13.10;;;4.30;99.90;;;;;;5025886;28;20198;-67
2022/01/23 01:49:09;;;;;;;20.05;12.90;;;4.30;99.90;;;;;;5023738;28;20453;-68
2022/01/23 01:51:35;;;;;;;17.73;12.73;;;4.40;99.90;;;;;;5029061;28;20560;-66
2022/01/23 01:54:08;;;;;;;19.45;12.93;;;4.40;99.90;;;;;;5031634;28;20622;-68
2022/01/23 01:56:50;;;;;;;19.52;13.02;;;4.40;99.90;;;;;;5037626;28;20207;-67
2022/01/23 02:09:43;;;;;;;13.55;9.27;;;4.70;99.90;;;;;;5027539;28;20185;-68
2022/01/23 02:12:38;;;;;;;15.48;10.32;;;4.90;99.90;;;;;;5029728;28;20190;-67
2022/01/23 02:55:17;;;;;;;12.38;7.90;;;5.60;99.90;;;;;;5028013;28;20599;-66
2022/01/23 03:00:13;;;;;;;14.80;8.00;;;5.50;99.90;;;;;;5028621;28;20190;-66
2022/01/23 03:02:44;;;;;;;11.57;8.15;;;5.60;99.90;;;;;;5043697;28;20174;-64
2022/01/23 03:05:23;;;;;;;11.65;8.02;;;5.60;99.90;;;;;;5035861;28;20278;-66
2022/01/23 03:08:20;;;;;;;13.32;8.07;;;5.60;99.90;;;;;;5021918;28;20186;-65
2022/01/23 03:10:59;;;;;;;12.90;8.25;;;5.60;99.90;;;;;;5025822;28;20175;-64
2022/01/23 03:24:28;;;;;;;12.40;8.13;;;5.50;99.90;;;;;;5036334;28;20263;-65
2022/01/23 03:30:15;;;;;;;13.30;8.57;;;5.50;99.90;;;;;;5026189;28;20205;-64
2022/01/23 03:32:45;;;;;;;12.98;8.57;;;5.50;99.90;;;;;;5026346;28;20187;-65
2022/01/23 03:35:11;;;;;;;11.10;7.50;;;5.50;99.90;;;;;;5026118;28;20191;-65
2022/01/23 03:37:36;;;;;;;11.40;7.47;;;5.50;99.90;;;;;;5028005;28;20198;-64
2022/01/23 03:40:04;;;;;;;13.40;8.70;;;5.50;99.90;;;;;;5033177;28;20941;-65
2022/01/23 03:42:32;;;;;;;10.45;7.13;;;5.50;99.90;;;;;;5039360;28;20182;-65
2022/01/23 03:45:44;;;;;;;11.25;7.90;;;5.50;99.90;;;;;;5028308;28;20240;-65
2022/01/23 03:48:01;;;;;;;10.90;7.75;;;5.50;99.90;;;;;;5027417;28;20199;-65
2022/01/23 03:50:26;;;;;;;11.02;7.05;;;5.50;99.90;;;;;;5030174;28;20202;-65
2022/01/23 03:52:52;;;;;;;11.53;7.37;;;5.50;99.90;;;;;;5030969;28;20226;-65
2022/01/23 03:55:17;;;;;;;11.60;7.50;;;5.50;99.90;;;;;;5031968;28;20246;-64
2022/01/23 03:57:43;;;;;;;11.07;7.40;;;5.50;99.90;;;;;;5038757;28;20588;-65
2022/01/23 04:00:09;;;;;;;12.13;7.50;;;5.50;99.90;;;;;;5039061;28;20218;-65
2022/01/23 04:02:35;;;;;;;13.10;8.27;;;5.50;99.90;;;;;;5046439;28;20194;-65
2022/01/23 04:05:00;;;;;;;11.83;7.60;;;5.60;99.90;;;;;;5036829;28;20606;-65
2022/01/23 04:07:28;;;;;;;11.33;8.10;;;5.50;99.90;;;;;;5036207;28;20186;-65
2022/01/23 04:09:54;;;;;;;13.02;8.40;;;5.50;99.90;;;;;;5040865;28;20201;-65
2022/01/23 04:14:56;;;;;;;10.23;6.53;;;5.50;99.90;;;;;;5041637;28;20468;-67
2022/01/23 04:47:47;;;;;;;11.40;7.88;;;5.40;99.90;;;;;;5044704;28;20567;-67
2022/01/23 05:00:58;;;;;;;12.57;8.35;;;5.30;99.90;;;;;;5036956;28;20197;-66
2022/01/23 05:04:10;;;;;;;10.93;6.60;;;5.30;99.90;;;;;;5045731;28;20179;-66
2022/01/23 05:06:23;;;;;;;11.38;7.45;;;5.30;99.90;;;;;;5025797;28;20205;-66
2022/01/23 05:08:49;;;;;;;13.45;7.97;;;5.30;99.90;;;;;;5038564;28;20592;-67
2022/01/23 05:11:15;;;;;;;11.32;7.13;;;5.30;99.90;;;;;;5036090;28;20190;-67
2022/01/23 05:13:41;;;;;;;9.87;6.60;;;5.30;99.90;;;;;;5030705;28;20598;-67
2022/01/23 05:16:08;;;;;;;11.33;8.07;;;5.20;99.90;;;;;;5038096;28;20569;-67
2022/01/23 05:18:35;;;;;;;11.32;7.30;;;5.30;99.90;;;;;;5034256;28;20641;-58
2022/01/23 05:21:16;;;;;;;9.18;7.00;;;5.30;99.90;;;;;;5035145;28;20178;-67
2022/01/23 05:23:42;;;;;;;11.73;7.20;;;5.30;99.90;;;;;;5034262;28;20301;-67
2022/01/23 05:26:08;;;;;;;11.90;6.60;;;5.30;99.90;;;;;;5029816;28;20705;-68
2022/01/23 05:28:33;;;;;;;13.17;8.30;;;5.30;99.90;;;;;;5029515;28;20183;-67
2022/01/23 05:30:59;;;;;;;12.17;7.77;;;5.30;99.90;;;;;;5029529;28;20174;-59
2022/01/23 05:33:24;;;;;;;10.23;7.30;;;5.30;99.90;;;;;;5029706;28;20198;-67
2022/01/23 05:35:50;;;;;;;12.63;7.67;;;5.30;99.90;;;;;;5029235;28;20206;-68
2022/01/23 05:38:15;;;;;;;11.33;7.57;;;5.30;99.90;;;;;;5035172;28;20175;-68
2022/01/23 05:40:43;;;;;;;10.23;7.13;;;5.30;99.90;;;;;;5035285;28;20257;-66
2022/01/23 05:43:08;;;;;;;12.35;7.38;;;5.40;99.90;;;;;;5037890;28;20233;-67
2022/01/23 05:45:37;;;;;;;12.63;8.30;;;5.40;99.90;;;;;;5029480;28;20207;-67
2022/01/23 05:48:03;;;;;;;10.18;7.18;;;5.40;99.90;;;;;;5018641;28;20186;-67
2022/01/23 05:50:29;;;;;;;11.50;7.27;;;5.40;99.90;;;;;;5033220;28;20183;-67
2022/01/23 05:52:54;;;;;;;11.53;8.00;;;5.40;99.90;;;;;;5036006;28;20477;-68
2022/01/23 05:55:20;;;;;;;11.50;6.80;;;5.30;99.90;;;;;;5028985;28;20199;-68
2022/01/23 05:57:45;;;;;;;14.30;7.70;;;5.30;99.90;;;;;;5040808;28;20521;-68
2022/01/23 06:00:11;;;;;;;10.53;6.93;;;5.40;99.90;;;;;;5027588;28;20183;-68
2022/01/23 06:02:37;;;;;;;10.25;6.25;;;5.40;99.90;;;;;;5028461;28;20182;-68
2022/01/23 06:05:03;;;;;;;11.53;7.40;;;5.40;99.90;;;;;;5032120;28;20198;-68
2022/01/23 06:07:28;;;;;;;9.57;7.17;;;5.40;99.90;;;;;;5042497;28;20182;-67
2022/01/23 06:09:54;;;;;;;10.00;6.87;;;5.40;99.90;;;;;;5039497;28;20221;-68
2022/01/23 06:12:19;;;;;;;11.50;7.00;;;5.30;99.90;;;;;;5024616;28;20660;-67
2022/01/23 06:14:45;;;;;;;9.93;6.60;;;5.30;99.90;;;;;;5021546;28;20193;-68
2022/01/23 06:17:10;;;;;;;10.73;6.27;;;5.30;99.90;;;;;;5035283;28;20186;-71
2022/01/23 06:19:37;;;;;;;11.33;7.50;;;5.30;99.90;;;;;;5034696;28;20606;-68
2022/01/23 06:22:03;;;;;;;10.23;6.38;;;5.30;99.90;;;;;;5033919;28;20198;-59
2022/01/23 06:24:30;;;;;;;9.97;6.30;;;5.30;99.90;;;;;;5028262;28;20194;-70
2022/01/23 06:26:58;;;;;;;9.32;6.38;;;5.30;99.90;;;;;;5026712;28;20625;-66
2022/01/23 06:29:25;;;;;;;10.95;6.90;;;5.30;99.90;;;;;;5032695;28;20536;-66
2022/01/23 06:31:55;;;;;;;9.23;6.32;;;5.30;99.90;;;;;;5032986;28;20185;-66
2022/01/23 06:34:20;;;;;;;9.40;5.97;;;5.30;99.90;;;;;;5046008;28;20519;-71
2022/01/23 06:36:50;;;;;;;8.77;5.57;;;5.20;99.90;;;;;;5031945;28;20203;-67
2022/01/23 06:39:15;;;;;;;11.07;6.55;;;5.30;99.90;;;;;;5043894;28;20188;-66
2022/01/23 06:41:41;;;;;;;11.47;7.00;;;5.30;99.90;;;;;;5032429;28;20195;-69
2022/01/23 06:44:07;;;;;;;10.70;6.30;;;5.30;99.90;;;;;;5037034;28;20192;-66
2022/01/23 06:46:33;;;;;;;11.15;7.07;;;5.30;99.90;;;;;;5028891;28;20196;-68
2022/01/23 06:49:00;;;;;;;9.35;6.53;;;5.30;99.90;;;;;;5032760;28;20600;-65
2022/01/23 06:51:26;;;;;;;10.52;6.68;;;5.30;99.90;;;;;;5030254;28;20197;-64
2022/01/23 06:53:52;;;;;;;9.27;6.20;;;5.30;99.90;;;;;;5030529;28;20643;-65
2022/01/23 06:56:18;;;;;;;9.90;6.65;;;5.30;99.90;;;;;;5035557;28;20519;-65
2022/01/23 06:58:44;;;;;;;9.47;6.13;;;5.30;99.90;;;;;;5031673;28;20621;-61
2022/01/23 07:01:10;;;;;;;11.73;7.00;;;5.20;99.90;;;;;;5022239;28;20519;-63
2022/01/23 07:03:36;;;;;;;9.68;6.35;;;5.20;99.90;;;;;;5027974;28;20470;-52
2022/01/23 07:06:02;;;;;;;9.70;6.47;;;5.30;99.90;;;;;;5029946;28;20664;-62
2022/01/23 07:08:28;;;;;;;10.90;6.90;;;5.30;99.90;;;;;;5029266;28;20438;-62
2022/01/23 07:10:53;;;;;;;10.60;6.03;;;5.30;99.90;;;;;;5033070;28;20193;-62
2022/01/23 07:13:19;;;;;;;9.57;6.10;;;5.20;99.90;;;;;;5023330;28;20186;-67
2022/01/23 07:15:44;;;;;;;9.60;6.07;;;5.20;99.90;;;;;;5031348;28;20209;-66
2022/01/23 07:18:10;;;;;;;9.57;6.30;;;5.20;99.90;;;;;;5027549;28;20527;-63
2022/01/23 07:20:36;;;;;;;13.03;7.20;;;5.30;99.90;;;;;;5031107;28;20194;-65
2022/01/23 07:23:01;;;;;;;9.70;6.23;;;5.30;99.90;;;;;;5030237;28;20170;-62
2022/01/23 07:25:27;;;;;;;10.07;6.63;;;5.30;99.90;;;;;;5023460;28;20442;-63
2022/01/23 07:27:56;;;;;;;10.43;6.87;;;5.30;99.90;;;;;;5025868;28;20190;-66
2022/01/23 07:30:33;;;;;;;10.18;5.95;;;5.30;99.90;;;;;;5030050;28;20187;-68
2022/01/23 07:32:58;;;;;;;10.63;7.15;;;5.30;99.90;;;;;;5039476;28;20182;-66
2022/01/23 07:35:24;;;;;;;7.93;5.50;;;5.30;99.90;;;;;;5037182;28;20256;-68
2022/01/23 07:37:50;;;;;;;9.70;6.17;;;5.40;99.90;;;;;;5029533;28;20809;-68
2022/01/23 07:40:16;;;;;;;10.23;5.70;;;5.40;99.90;;;;;;5032047;28;20183;-70
2022/01/23 07:42:41;;;;;;;9.47;6.17;;;5.30;99.90;;;;;;5034675;28;20189;-70
2022/01/23 07:45:07;;;;;;;8.67;6.10;;;5.40;99.90;;;;;;5033209;28;20449;-67
2022/01/23 07:47:33;;;;;;;8.55;6.40;;;5.40;99.90;;;;;;5033045;28;20200;-65
2022/01/23 07:50:00;;;;;;;9.47;6.67;;;5.40;99.90;;;;;;5033798;28;20609;-66
2022/01/23 07:52:29;;;;;;;10.48;6.85;;;5.40;99.90;;;;;;5026060;28;20469;-69
2022/01/23 07:54:55;;;;;;;10.85;7.13;;;5.40;99.90;;;;;;5024938;28;20206;-63
2022/01/23 07:57:22;;;;;;;11.27;7.35;;;5.40;99.90;;;;;;5031077;28;20217;-65
2022/01/23 07:59:48;;;;;;;10.43;7.53;;;5.40;99.90;;;;;;5033169;28;20194;-65
2022/01/23 08:02:13;;;;;;;11.00;6.87;;;5.50;99.90;;;;;;5033993;28;20186;-59
2022/01/23 08:04:39;;;;;;;11.43;6.93;;;5.50;99.90;;;;;;5034570;28;20740;-65
2022/01/23 08:07:10;;;;;;;11.40;7.40;;;5.60;99.90;;;;;;5034504;28;20186;-64
2022/01/23 08:09:36;;;;;;;11.55;7.75;;;5.50;99.90;;;;;;5024093;28;20202;-55
2022/01/23 08:12:03;;;;;;;10.80;7.60;;;5.50;99.90;;;;;;5030889;28;20199;-64
2022/01/23 08:14:28;;;;;;;11.95;8.43;;;5.60;99.90;;;;;;5028593;28;20214;-63
2022/01/23 08:16:54;;;;;;;10.70;7.70;;;5.60;99.90;;;;;;5022002;28;20623;-63
2022/01/23 08:19:19;;;;;;;12.07;8.40;;;5.70;99.90;;;;;;5029029;28;20182;-63
2022/01/23 08:21:45;;;;;;;11.03;7.63;;;5.70;99.90;;;;;;5030393;28;20233;-63
2022/01/23 08:24:11;;;;;;;11.30;7.60;;;5.70;99.90;;;;;;5025733;28;20191;-62
2022/01/23 08:26:37;;;;;;;12.45;7.90;;;5.80;99.90;;;;;;5027804;28;20240;-64
2022/01/23 08:29:04;;;;;;;11.98;7.90;;;5.80;99.90;;;;;;5011251;28;20232;-64
2022/01/23 08:31:29;;;;;;;13.90;8.27;;;5.90;99.90;;;;;;5028336;28;20183;-64
2022/01/23 08:33:55;;;;;;;11.50;7.70;;;5.90;99.90;;;;;;5028108;28;20197;-65
2022/01/23 08:36:21;;;;;;;13.30;8.10;;;5.80;99.90;;;;;;5024317;28;20198;-63
2022/01/23 08:38:46;;;;;;;12.53;8.00;;;5.90;99.90;;;;;;5028599;28;20663;-63
2022/01/23 08:43:38;;;;;;;10.83;8.03;;;5.90;99.90;;;;;;5028114;28;20182;-65
2022/01/23 08:46:04;;;;;;;11.87;8.63;;;5.90;99.90;;;;;;5024361;28;20645;-65
2022/01/23 08:48:30;;;;;;;15.82;8.50;;;5.90;99.90;;;;;;5041471;28;20421;-65
2022/01/23 08:50:56;;;;;;;14.65;8.85;;;5.90;99.90;;;;;;5036741;28;20186;-66
2022/01/23 08:53:22;;;;;;;13.83;9.30;;;6.00;99.90;;;;;;5033912;28;20229;-58
2022/01/23 08:55:47;;;;;;;14.23;8.60;;;5.90;99.90;;;;;;5030165;28;20695;-58
2022/01/23 08:58:14;;;;;;;15.10;8.43;;;6.00;99.90;;;;;;5034077;28;20542;-59
2022/01/23 09:00:40;;;;;;;12.57;8.13;;;5.90;99.90;;;;;;5026902;28;20191;-59
2022/01/23 09:03:05;;;;;;;12.10;8.37;;;5.90;99.90;;;;;;5026793;28;20183;-59
2022/01/23 09:05:31;;;;;;;14.13;8.27;;;5.90;99.90;;;;;;5038015;28;20233;-59
2022/01/23 09:07:57;;;;;;;11.50;8.00;;;5.90;99.90;;;;;;5016269;28;20645;-59
2022/01/23 09:10:28;;;;;;;15.13;8.43;;;5.80;99.90;;;;;;5032123;28;20217;-59
2022/01/23 09:13:08;;;;;;;12.88;7.70;;;5.80;99.90;;;;;;5022960;28;20417;-59
2022/01/23 09:15:34;;;;;;;10.70;7.57;;;5.90;99.90;;;;;;5021655;28;20211;-60
2022/01/23 09:18:00;;;;;;;9.80;6.80;;;5.90;99.90;;;;;;5029442;28;20186;-60
2022/01/23 09:20:26;;;;;;;11.90;7.53;;;6.00;99.90;;;;;;5026740;28;20187;-59
2022/01/23 09:22:51;;;;;;;12.87;8.37;;;6.00;99.90;;;;;;5028130;28;20191;-59
2022/01/23 09:25:17;;;;;;;10.67;7.83;;;5.80;99.90;;;;;;5029638;28;20443;-61
2022/01/23 09:27:43;;;;;;;10.60;7.28;;;5.90;99.90;;;;;;5028019;28;20195;-61
2022/01/23 09:30:17;;;;;;;10.67;7.30;;;5.90;99.90;;;;;;5026341;28;20183;-61
2022/01/23 09:32:44;;;;;;;7.80;6.38;;;5.90;99.90;;;;;;5028293;28;20229;-60
2022/01/23 09:35:14;;;;;;;9.45;6.53;;;5.90;99.90;;;;;;5027123;28;20913;-60
2022/01/23 09:37:40;;;;;;;9.52;6.50;;;6.00;99.90;;;;;;5034972;28;20179;-60
2022/01/23 09:40:07;;;;;;;10.35;7.97;;;6.00;99.90;;;;;;5028650;28;20648;-60
2022/01/23 09:42:51;;;;;;;9.45;6.90;;;6.00;99.90;;;;;;5042229;28;20629;-60
2022/01/23 09:45:18;;;;;;;8.50;6.88;;;6.00;99.90;;;;;;5031423;28;20182;-61
2022/01/23 09:47:44;;;;;;;8.90;6.35;;;6.10;99.90;;;;;;5044753;28;20205;-59
2022/01/23 09:50:12;;;;;;;11.00;7.73;;;6.00;99.90;;;;;;5024047;28;20187;-60
2022/01/23 09:52:38;;;;;;;10.10;7.22;;;6.00;99.90;;;;;;5022025;28;20484;-62
2022/01/23 09:55:09;;;;;;;11.40;7.20;;;6.00;99.90;;;;;;5020514;28;20219;-63
2022/01/23 09:57:43;;;;;;;10.13;6.70;;;6.10;99.90;;;;;;5022763;28;21072;-63
2022/01/23 10:00:12;;;;;;;8.55;6.50;;;6.30;99.90;;;;;;5033335;28;20280;-63
2022/01/23 10:02:38;;;;;;;8.00;5.80;;;6.40;99.90;;;;;;5029994;28;20551;-62
2022/01/23 10:05:05;;;;;;;7.87;5.90;;;6.40;99.90;;;;;;5032307;28;20180;-63
2022/01/23 10:07:36;;;;;;;8.25;6.10;;;6.40;99.90;;;;;;5029974;28;20194;-63
2022/01/23 10:10:10;;;;;;;8.60;5.80;;;6.40;99.90;;;;;;5031647;28;20190;-63
2022/01/23 10:12:45;;;;;;;9.18;6.95;;;6.30;99.90;;;;;;5036072;28;20289;-63
2022/01/23 10:15:11;;;;;;;9.75;6.60;;;6.30;99.90;;;;;;5015969;28;20216;-62
2022/01/23 10:17:38;;;;;;;9.48;7.07;;;6.30;99.90;;;;;;5011422;28;20171;-61
2022/01/23 10:20:05;;;;;;;7.47;5.95;;;6.40;99.90;;;;;;5015850;28;20197;-68
2022/01/23 10:22:33;;;;;;;7.63;5.45;;;6.40;99.90;;;;;;5044337;28;20190;-65
2022/01/23 10:25:14;;;;;;;7.40;5.45;;;6.40;99.90;;;;;;5030526;28;20504;-66
2022/01/23 10:28:01;;;;;;;8.85;6.10;;;6.30;99.90;;;;;;5026757;28;20187;-67
2022/01/23 10:30:30;;;;;;;9.63;5.50;;;6.30;99.90;;;;;;5021077;28;20201;-67
2022/01/23 10:33:03;;;;;;;9.27;6.32;;;6.40;99.90;;;;;;5035389;28;20174;-66
2022/01/23 10:35:29;;;;;;;8.27;6.25;;;6.40;99.90;;;;;;5043854;28;20210;-66
2022/01/23 10:37:55;;;;;;;7.50;5.60;;;6.30;99.90;;;;;;5034809;28;20513;-65
2022/01/23 10:40:21;;;;;;;8.13;5.53;;;6.30;99.90;;;;;;5027310;28;20171;-65
2022/01/23 10:48:36;;;;;;;7.88;5.95;;;6.40;99.90;;;;;;5022531;28;20698;-65
2022/01/23 10:51:16;;;;;;;7.82;5.35;;;6.50;99.90;;;;;;5038544;28;20182;-65
2022/01/23 10:54:03;;;;;;;6.97;6.03;;;6.50;99.90;;;;;;5032497;28;20229;-65
2022/01/23 10:56:31;;;;;;;8.68;6.05;;;6.60;99.90;;;;;;5025643;28;20203;-65
2022/01/23 10:59:11;;;;;;;7.68;5.40;;;6.60;99.90;;;;;;5023904;28;20183;-66
2022/01/23 11:01:39;;;;;;;8.77;6.15;;;6.60;99.90;;;;;;5028035;28;20208;-65
2022/01/23 11:04:13;;;;;;;6.88;4.78;;;6.60;99.90;;;;;;5032939;28;20182;-66
2022/01/23 11:07:02;;;;;;;7.40;5.57;;;6.70;99.90;;;;;;5049171;28;20203;-68
2022/01/23 11:09:36;;;;;;;7.20;5.50;;;6.70;99.90;;;;;;5049256;28;20189;-65
2022/01/23 11:12:05;;;;;;;7.57;5.60;;;6.70;99.90;;;;;;5032222;28;20761;-66
2022/01/23 11:17:23;;;;;;;6.93;5.30;;;6.80;99.90;;;;;;5030658;28;20201;-65
2022/01/23 11:19:59;;;;;;;6.97;5.43;;;6.80;99.90;;;;;;5031882;28;20910;-65
2022/01/23 11:22:29;;;;;;;8.40;6.27;;;6.70;99.90;;;;;;5030819;28;20464;-65
2022/01/23 11:25:04;;;;;;;7.40;5.60;;;6.80;99.90;;;;;;5031451;28;20409;-66
2022/01/23 11:27:35;;;;;;;7.30;5.67;;;6.80;99.90;;;;;;5029022;28;20955;-66
2022/01/23 11:30:21;;;;;;;11.03;6.20;;;6.70;99.90;;;;;;5034135;28;20433;-65
2022/01/23 11:32:47;;;;;;;7.30;6.30;;;6.70;99.90;;;;;;5044299;28;20532;-65
2022/01/23 11:35:16;;;;;;;7.83;5.53;;;6.70;99.90;;;;;;5023960;28;20547;-64
2022/01/23 11:37:51;;;;;;;9.03;5.80;;;6.70;99.90;;;;;;5030750;28;20179;-66
2022/01/23 11:54:03;;;;;;;6.50;4.67;;;6.90;99.90;;;;;;5028869;28;20754;-65
2022/01/23 11:56:33;;;;;;;6.07;4.20;;;6.80;99.90;;;;;;5028944;28;20893;-63
2022/01/23 11:59:23;;;;;;;7.10;5.07;;;6.80;99.90;;;;;;5028965;28;20476;-65
2022/01/23 12:02:20;;;;;;;6.55;5.03;;;6.80;99.90;;;;;;5028069;28;20190;-64
2022/01/23 12:05:11;;;;;;;6.70;5.10;;;6.70;99.90;;;;;;5026627;28;20198;-69
2022/01/23 12:07:39;;;;;;;8.07;5.93;;;6.70;99.90;;;;;;5018263;28;20634;-61
2022/01/23 12:10:10;;;;;;;6.75;5.18;;;6.70;99.90;;;;;;5029798;28;20985;-63
2022/01/23 12:12:41;;;;;;;7.70;5.70;;;6.70;99.90;;;;;;5025644;28;20187;-64
2022/01/23 12:18:18;;;;;;;7.95;5.07;;;6.80;99.90;;;;;;5009870;28;20418;-66
2022/01/23 12:20:45;;;;;;;6.18;4.63;;;6.90;99.90;;;;;;5013533;28;20402;-68
2022/01/23 12:23:12;;;;;;;7.10;5.30;;;7.10;99.90;;;;;;5014513;28;20183;-66
2022/01/23 12:25:44;;;;;;;6.63;4.63;;;7.30;99.90;;;;;;5013994;28;20923;-64
2022/01/23 12:28:12;;;;;;;6.33;5.03;;;7.60;99.90;;;;;;5025064;28;20768;-64
2022/01/23 12:30:40;;;;;;;6.10;4.67;;;7.70;99.90;;;;;;5033224;28;20800;-61
2022/01/23 12:33:10;;;;;;;4.33;3.93;;;7.80;99.90;;;;;;5038265;28;20784;-66
2022/01/23 12:35:44;;;;;;;5.93;3.93;;;7.90;99.90;;;;;;5032339;28;20461;-65
2022/01/23 12:38:10;;;;;;;3.80;3.40;;;8.00;99.90;;;;;;5040263;28;20444;-65
2022/01/23 12:40:45;;;;;;;5.37;4.53;;;7.90;99.90;;;;;;5029280;28;20945;-66
2022/01/23 12:43:12;;;;;;;4.30;3.90;;;7.90;99.90;;;;;;5045063;28;20421;-68
2022/01/23 12:45:43;;;;;;;5.73;3.80;;;7.80;99.90;;;;;;5017999;28;20435;-68
2022/01/23 12:48:36;;;;;;;5.10;3.90;;;7.60;99.90;;;;;;5035028;28;20536;-67
2022/01/23 12:51:08;;;;;;;5.53;4.10;;;7.50;99.90;;;;;;5013796;28;20433;-67
2022/01/23 12:53:45;;;;;;;4.87;4.30;;;7.40;99.90;;;;;;5030030;28;20894;-68
2022/01/23 12:56:13;;;;;;;4.97;4.00;;;7.30;99.90;;;;;;5034546;28;20982;-68
2022/01/23 12:58:41;;;;;;;5.53;4.77;;;7.10;99.90;;;;;;5043984;28;20460;-67
2022/01/23 13:01:25;;;;;;;5.97;4.73;;;7.10;99.90;;;;;;5046510;28;20417;-67
2022/01/23 13:04:04;;;;;;;5.37;4.50;;;7.10;99.90;;;;;;5036490;28;20426;-67
2022/01/23 13:06:34;;;;;;;5.43;4.10;;;7.20;99.90;;;;;;5029281;28;21017;-67
2022/01/23 13:35:10;;;;;;;7.13;5.60;;;6.90;99.90;;;;;;5028490;28;20931;-64
2022/01/23 13:37:39;;;;;;;7.07;5.80;;;6.90;99.90;;;;;;5036918;28;20247;-67
2022/01/23 13:40:12;;;;;;;9.10;7.20;;;7.00;99.90;;;;;;5020615;28;20860;-66
2022/01/23 13:59:29;;;;;;;5.63;4.40;;;7.10;99.90;;;;;;5022314;28;20463;-68
2022/01/23 14:04:28;;;;;;;5.33;4.00;;;7.10;99.90;;;;;;5023948;28;20433;-63
2022/01/23 14:06:54;;;;;;;5.47;4.07;;;7.10;99.90;;;;;;5038452;28;20521;-64
2022/01/23 14:09:21;;;;;;;6.70;5.10;;;7.10;99.90;;;;;;5027802;28;20524;-65
2022/01/23 14:11:48;;;;;;;5.37;4.63;;;7.10;99.90;;;;;;5040902;28;20588;-62
2022/01/23 14:14:21;;;;;;;5.00;4.03;;;7.10;99.90;;;;;;5030341;28;20449;-65
2022/01/23 14:16:49;;;;;;;7.10;6.30;;;7.10;99.90;;;;;;5041075;28;20461;-62
2022/01/23 14:19:20;;;;;;;4.87;4.07;;;7.10;99.90;;;;;;5027958;28;20427;-62
2022/01/23 14:21:50;;;;;;;4.90;4.00;;;7.00;99.90;;;;;;5034505;28;20770;-63
2022/01/23 14:24:29;;;;;;;3.97;3.30;;;6.90;99.90;;;;;;5030779;28;20438;-65
2022/01/23 14:27:13;;;;;;;4.60;4.07;;;6.90;99.90;;;;;;5030780;28;20443;-65
2022/01/23 14:29:54;;;;;;;5.60;4.67;;;6.70;99.90;;;;;;5027676;28;20939;-65
2022/01/23 14:32:36;;;;;;;5.10;4.13;;;6.60;99.90;;;;;;5027053;28;20786;-65
2022/01/23 14:35:11;;;;;;;5.33;3.97;;;6.60;99.90;;;;;;5029944;28;20449;-64
2022/01/23 14:37:38;;;;;;;5.38;4.47;;;6.60;99.90;;;;;;5019925;28;20416;-65
2022/01/23 14:40:23;;;;;;;5.95;4.30;;;6.60;99.90;;;;;;5028041;28;20213;-67
2022/01/23 14:43:07;;;;;;;7.40;4.40;;;6.50;99.90;;;;;;5031400;28;20193;-64
2022/01/23 14:45:41;;;;;;;6.00;4.60;;;6.50;99.90;;;;;;5020460;28;20272;-68
2022/01/23 14:48:08;;;;;;;7.15;5.40;;;6.50;99.90;;;;;;5035691;28;20202;-65
2022/01/23 14:50:37;;;;;;;5.75;4.45;;;6.40;99.90;;;;;;5048525;28;20186;-65
2022/01/23 14:53:11;;;;;;;6.88;5.72;;;6.40;99.90;;;;;;5042256;28;20305;-64
2022/01/23 14:55:40;;;;;;;6.68;5.47;;;6.40;99.90;;;;;;5012760;28;20203;-64
2022/01/23 14:58:10;;;;;;;7.70;5.10;;;6.40;99.90;;;;;;5016592;28;20178;-64
2022/01/23 15:00:36;;;;;;;6.72;5.55;;;6.50;99.90;;;;;;5009590;28;20557;-64
2022/01/23 15:03:04;;;;;;;6.43;5.37;;;6.40;99.90;;;;;;5011162;28;20176;-65
2022/01/23 15:05:32;;;;;;;8.38;6.53;;;6.30;99.90;;;;;;5013131;28;20745;-65
2022/01/23 15:07:58;;;;;;;8.70;7.10;;;6.30;99.90;;;;;;5009122;28;20179;-63
2022/01/23 15:10:25;;;;;;;7.50;5.70;;;6.30;99.90;;;;;;5013327;28;20464;-64
2022/01/23 15:12:50;;;;;;;9.85;7.40;;;6.30;99.90;;;;;;5012107;28;20602;-64
2022/01/23 15:15:16;;;;;;;8.13;7.00;;;6.30;99.90;;;;;;5009619;28;20283;-64
2022/01/23 15:17:41;;;;;;;7.03;5.57;;;6.30;99.90;;;;;;5012129;28;20176;-66
2022/01/23 15:20:08;;;;;;;7.50;5.50;;;6.30;99.90;;;;;;5010421;28;20175;-65
2022/01/23 15:22:34;;;;;;;7.53;6.03;;;6.30;99.90;;;;;;5007689;28;20724;-65
2022/01/23 15:25:00;;;;;;;5.80;5.07;;;6.30;99.90;;;;;;5018263;28;20179;-66
2022/01/23 15:27:26;;;;;;;7.15;5.53;;;6.30;99.90;;;;;;5014503;28;20211;-68
2022/01/23 15:29:52;;;;;;;7.17;5.43;;;6.30;99.90;;;;;;5012068;28;20245;-66
2022/01/23 15:32:18;;;;;;;7.70;5.87;;;6.20;99.90;;;;;;5031435;28;20915;-66
2022/01/23 15:34:44;;;;;;;7.53;5.30;;;6.20;99.90;;;;;;5014959;28;20886;-61
2022/01/23 15:37:10;;;;;;;5.90;5.23;;;6.30;99.90;;;;;;5014912;28;20457;-65
2022/01/23 15:39:35;;;;;;;7.78;5.47;;;6.30;99.90;;;;;;5027085;28;20210;-64
2022/01/23 15:42:01;;;;;;;8.93;6.40;;;6.30;99.90;;;;;;5028354;28;20209;-68
2022/01/23 15:44:27;;;;;;;7.50;5.43;;;6.20;99.90;;;;;;5030861;28;20191;-68
2022/01/23 15:46:52;;;;;;;7.30;5.87;;;6.20;99.90;;;;;;5035411;28;20261;-67
2022/01/23 15:49:18;;;;;;;9.20;6.37;;;6.20;99.90;;;;;;5027704;28;20266;-65
2022/01/23 15:51:47;;;;;;;10.80;7.57;;;6.20;99.90;;;;;;5041213;28;20194;-63
2022/01/23 15:54:14;;;;;;;13.10;10.40;;;6.10;99.90;;;;;;5035915;28;20182;-68
2022/01/23 15:56:41;;;;;;;13.63;10.85;;;6.10;99.90;;;;;;5029385;28;20289;-74
2022/01/23 15:59:06;;;;;;;10.27;7.15;;;6.10;99.90;;;;;;5040123;28;20199;-69
2022/01/23 16:01:32;;;;;;;9.80;6.70;;;6.10;99.90;;;;;;5040812;28;20672;-73
2022/01/23 16:03:58;;;;;;;8.00;5.80;;;6.20;99.90;;;;;;5035270;28;20185;-74
2022/01/23 16:06:23;;;;;;;6.13;5.47;;;6.20;99.90;;;;;;5043477;28;20191;-70
2022/01/23 16:08:49;;;;;;;9.03;5.83;;;6.20;99.90;;;;;;5032474;28;20258;-69
2022/01/23 16:11:15;;;;;;;9.07;5.53;;;6.20;99.90;;;;;;5034944;28;20191;-66
2022/01/23 16:13:41;;;;;;;7.50;5.67;;;6.20;99.90;;;;;;5033183;28;20430;-69
2022/01/23 16:16:07;;;;;;;7.53;5.43;;;6.20;99.90;;;;;;5040356;28;20360;-68
2022/01/23 16:18:33;;;;;;;7.90;5.83;;;6.20;99.90;;;;;;5031973;28;20259;-71
2022/01/23 16:20:58;;;;;;;8.77;5.00;;;6.10;99.90;;;;;;5039879;28;20178;-69
2022/01/23 16:23:24;;;;;;;7.43;5.70;;;6.10;99.90;;;;;;5037770;28;20202;-70
2022/01/23 16:25:52;;;;;;;7.20;5.00;;;6.10;99.90;;;;;;5038697;28;20185;-69
2022/01/23 16:28:20;;;;;;;7.40;5.28;;;6.10;99.90;;;;;;5034486;28;20186;-73